createdAt,value
2022-09-15T00:01:35.330Z,22.20
2022-09-15T00:04:14.001Z,25.97
2022-09-15T00:06:42.345Z,36.97
2022-09-15T00:09:17.002Z,37.80
2022-09-15T00:11:45.510Z,34.60
2022-09-15T00:14:21.000Z,40.53
2022-09-15T00:16:49.503Z,34.53
2022-09-15T00:19:25.838Z,26.00
2022-09-15T00:22:01.257Z,31.40
2022-09-15T00:24:45.142Z,19.60
2022-09-15T00:27:13.598Z,23.93
2022-09-15T00:29:48.884Z,18.70
2022-09-15T00:32:17.704Z,23.70
2022-09-15T00:34:55.007Z,19.63
2022-09-15T00:37:23.830Z,20.97
2022-09-15T00:40:01.516Z,20.50
2022-09-15T00:42:36.888Z,23.80
2022-09-15T00:45:10.214Z,18.77
2022-09-15T00:47:48.013Z,23.63
2022-09-15T00:50:20.245Z,24.30
2022-09-15T00:52:58.833Z,24.10
2022-09-15T00:55:30.959Z,29.10
2022-09-15T00:58:09.028Z,36.03
2022-09-15T01:00:37.762Z,34.80
2022-09-15T01:03:12.838Z,30.87
2022-09-15T01:05:46.981Z,34.00
2022-09-15T01:08:26.990Z,36.93
2022-09-15T01:10:58.121Z,34.27
2022-09-15T01:13:33.853Z,28.80
2022-09-15T01:16:13.065Z,26.67
2022-09-15T01:18:59.093Z,35.30
2022-09-15T01:21:46.361Z,28.37
2022-09-15T01:24:54.069Z,27.17
2022-09-15T01:27:43.203Z,25.13
2022-09-15T01:30:23.053Z,26.13
2022-09-15T01:33:14.953Z,22.67
2022-09-15T01:36:04.942Z,18.73
2022-09-15T01:38:41.881Z,18.37
2022-09-15T01:41:26.049Z,21.50
2022-09-15T01:44:02.600Z,19.93
2022-09-15T01:46:42.957Z,17.90
2022-09-15T01:49:15.863Z,19.27
2022-09-15T01:51:52.073Z,24.37
2022-09-15T01:54:24.083Z,18.50
2022-09-15T01:56:59.070Z,23.03
2022-09-15T01:59:27.585Z,27.87
2022-09-15T02:02:09.964Z,25.10
2022-09-15T02:04:41.602Z,23.83
2022-09-15T02:07:24.099Z,27.20
2022-09-15T02:10:00.940Z,27.13
2022-09-15T02:12:44.959Z,30.00
2022-09-15T02:15:16.326Z,27.40
2022-09-15T02:17:56.976Z,26.90
2022-09-15T02:20:34.563Z,25.83
2022-09-15T02:23:22.103Z,23.40
2022-09-15T02:25:54.102Z,24.70
2022-09-15T02:28:35.029Z,27.47
2022-09-15T02:31:05.448Z,23.90
2022-09-15T02:33:46.960Z,23.80
2022-09-15T02:36:20.094Z,20.80
2022-09-15T02:38:59.006Z,18.60
2022-09-15T02:41:28.445Z,21.83
2022-09-15T02:44:02.938Z,19.57
2022-09-15T02:46:31.816Z,16.93
2022-09-15T02:49:08.127Z,19.60
2022-09-15T02:51:36.640Z,20.07
2022-09-15T02:54:12.054Z,21.33
2022-09-15T02:56:43.260Z,23.00
2022-09-15T03:02:15.021Z,24.70
2022-09-15T03:04:51.170Z,21.50
2022-09-15T03:07:21.919Z,23.13
2022-09-15T03:09:57.168Z,19.77
2022-09-15T03:12:26.246Z,24.37
2022-09-15T03:15:01.166Z,23.37
2022-09-15T03:17:29.554Z,23.97
2022-09-15T03:20:07.048Z,22.17
2022-09-15T03:22:55.140Z,22.00
2022-09-15T03:25:29.997Z,24.43
2022-09-15T03:27:58.548Z,25.07
2022-09-15T03:30:33.208Z,23.77
2022-09-15T03:33:01.722Z,23.90
2022-09-15T03:35:38.200Z,21.80
2022-09-15T03:38:08.649Z,24.90
2022-09-15T03:40:44.257Z,24.90
2022-09-15T03:43:18.556Z,21.00
2022-09-15T03:45:56.873Z,22.47
2022-09-15T03:48:26.057Z,23.50
2022-09-15T03:51:03.042Z,24.47
2022-09-15T03:53:33.489Z,24.47
2022-09-15T03:56:16.238Z,25.57
2022-09-15T03:58:44.638Z,27.00
2022-09-15T04:01:20.206Z,25.67
2022-09-15T04:03:51.357Z,26.60
2022-09-15T04:06:31.428Z,25.70
2022-09-15T04:09:00.587Z,24.77
2022-09-15T04:11:36.068Z,26.20
2022-09-15T04:14:04.787Z,24.27
2022-09-15T04:16:40.218Z,27.43
2022-09-15T04:19:09.006Z,25.03
2022-09-15T04:21:45.082Z,27.33
2022-09-15T04:24:13.749Z,23.60
2022-09-15T04:26:48.195Z,25.37
2022-09-15T04:29:17.862Z,25.27
2022-09-15T04:31:53.272Z,25.40
2022-09-15T04:34:21.783Z,25.07
2022-09-15T04:36:59.042Z,26.93
2022-09-15T04:39:27.420Z,24.97
2022-09-15T04:42:02.091Z,27.83
2022-09-15T04:44:30.582Z,30.00
2022-09-15T04:47:06.111Z,27.20
2022-09-15T04:49:34.550Z,25.90
2022-09-15T04:52:12.072Z,24.53
2022-09-15T04:54:40.421Z,23.57
2022-09-15T04:57:16.117Z,23.40
2022-09-15T04:59:44.767Z,25.97
2022-09-15T05:02:20.211Z,23.87
2022-09-15T05:04:51.614Z,23.93
2022-09-15T05:07:28.103Z,25.30
2022-09-15T05:10:03.065Z,26.00
2022-09-15T05:12:31.495Z,24.40
2022-09-15T05:15:06.071Z,25.37
2022-09-15T05:17:34.861Z,27.50
2022-09-15T05:20:11.257Z,27.37
2022-09-15T05:23:01.066Z,24.03
2022-09-15T05:25:37.257Z,28.53
2022-09-15T05:28:05.837Z,26.20
2022-09-15T05:30:52.345Z,29.70
2022-09-15T05:33:21.334Z,26.33
2022-09-15T05:36:00.147Z,25.53
2022-09-15T05:38:31.821Z,27.27
2022-09-15T05:41:11.089Z,26.17
2022-09-15T05:43:40.889Z,24.73
2022-09-15T05:46:17.175Z,30.77
2022-09-15T05:48:46.983Z,29.87
2022-09-15T05:51:22.163Z,31.40
2022-09-15T05:53:52.131Z,27.20
2022-09-15T05:56:28.119Z,27.80
2022-09-15T05:58:57.301Z,29.37
2022-09-15T06:01:34.223Z,26.47
2022-09-15T06:04:05.050Z,25.90
2022-09-15T06:06:40.133Z,30.70
2022-09-15T06:09:10.145Z,25.03
2022-09-15T06:11:45.220Z,28.23
2022-09-15T06:14:15.024Z,32.57
2022-09-15T06:17:00.155Z,27.10
2022-09-15T06:19:28.604Z,26.13
2022-09-15T06:22:03.126Z,25.53
2022-09-15T06:24:40.004Z,28.23
2022-09-15T06:27:15.199Z,28.40
2022-09-15T06:29:43.717Z,28.13
2022-09-15T06:32:18.206Z,26.30
2022-09-15T06:34:46.650Z,24.47
2022-09-15T06:37:22.205Z,26.07
2022-09-15T06:39:52.341Z,29.33
2022-09-15T06:42:27.209Z,23.27
2022-09-15T06:44:56.615Z,22.70
2022-09-15T06:47:31.211Z,22.77
2022-09-15T06:50:10.682Z,28.10
2022-09-15T06:52:45.350Z,22.97
2022-09-15T06:55:15.158Z,22.30
2022-09-15T06:57:50.134Z,25.50
2022-09-15T07:00:20.408Z,25.80
2022-09-15T07:02:57.224Z,23.87
2022-09-15T07:05:25.866Z,23.23
2022-09-15T07:08:01.364Z,21.60
2022-09-15T07:10:31.398Z,22.07
2022-09-15T07:13:08.235Z,23.43
2022-09-15T07:15:36.906Z,23.83
2022-09-15T07:18:12.198Z,22.93
2022-09-15T07:20:42.107Z,20.23
2022-09-15T07:23:17.362Z,21.43
2022-09-15T07:25:47.475Z,20.40
2022-09-15T07:28:23.317Z,23.30
2022-09-15T07:30:52.656Z,20.67
2022-09-15T07:33:27.254Z,25.27
2022-09-15T07:35:55.726Z,24.77
2022-09-15T07:38:31.374Z,22.50
2022-09-15T07:41:06.391Z,19.73
2022-09-15T07:43:41.404Z,19.97
2022-09-15T07:46:09.981Z,22.93
2022-09-15T07:48:45.288Z,22.70
2022-09-15T07:51:14.416Z,25.70
2022-09-15T07:53:49.225Z,20.10
2022-09-15T07:56:19.745Z,20.27
2022-09-15T07:58:55.594Z,21.03
2022-09-15T08:01:24.600Z,20.80
2022-09-15T08:04:00.412Z,21.93
2022-09-15T08:06:29.618Z,22.13
2022-09-15T08:09:04.615Z,19.80
2022-09-15T08:11:34.753Z,17.80
2022-09-15T08:14:10.242Z,21.13
2022-09-15T08:16:39.039Z,20.03
2022-09-15T08:19:15.488Z,18.97
2022-09-15T08:21:43.983Z,18.13
2022-09-15T08:24:25.320Z,17.93
2022-09-15T08:26:55.451Z,17.73
2022-09-15T08:29:30.425Z,18.27
2022-09-15T08:31:59.489Z,16.63
2022-09-15T08:34:36.231Z,16.43
2022-09-15T08:37:04.593Z,16.83
2022-09-15T08:39:39.433Z,15.43
2022-09-15T08:42:16.404Z,19.00
2022-09-15T08:44:56.425Z,16.40
2022-09-15T08:47:28.884Z,17.23
2022-09-15T08:50:09.281Z,18.07
2022-09-15T08:52:49.282Z,16.63
2022-09-15T08:55:23.878Z,16.37
2022-09-15T08:58:02.251Z,17.17
2022-09-15T09:00:31.349Z,17.57
2022-09-15T09:03:35.288Z,21.03
2022-09-15T09:06:14.725Z,14.63
2022-09-15T09:09:06.477Z,14.53
2022-09-15T09:11:50.894Z,14.47
2022-09-15T09:17:45.458Z,11.17
2022-09-15T09:20:37.478Z,11.17
2022-09-15T09:23:30.381Z,7.40
2022-09-15T09:26:10.544Z,9.37
2022-09-15T09:28:43.234Z,8.20
2022-09-15T09:31:25.419Z,8.90
2022-09-15T09:33:58.479Z,6.57
2022-09-15T09:36:34.510Z,5.00
2022-09-15T09:39:05.382Z,5.47
2022-09-15T09:41:54.384Z,4.23
2022-09-15T09:44:31.900Z,1.97
2022-09-15T09:47:10.336Z,4.63
2022-09-15T09:49:44.016Z,4.97
2022-09-15T09:52:22.017Z,3.27
2022-09-15T09:55:02.182Z,3.30
2022-09-15T09:57:40.864Z,4.40
2022-09-15T10:00:32.133Z,4.03
2022-09-15T10:03:19.360Z,7.87
2022-09-15T10:06:02.187Z,3.97
2022-09-15T10:08:37.410Z,4.77
2022-09-15T10:11:07.401Z,2.80
2022-09-15T10:13:43.544Z,5.77
2022-09-15T10:16:12.055Z,5.47
2022-09-15T10:18:53.433Z,4.00
2022-09-15T10:21:25.235Z,3.47
2022-09-15T10:24:43.525Z,6.40
2022-09-15T10:27:27.329Z,7.67
2022-09-15T10:30:02.429Z,3.77
2022-09-15T10:32:32.390Z,5.83
2022-09-15T10:35:12.541Z,5.83
2022-09-15T10:37:57.871Z,3.33
2022-09-15T10:40:47.366Z,5.73
2022-09-15T10:43:30.169Z,5.27
2022-09-15T10:46:12.458Z,4.37
2022-09-15T10:49:01.873Z,5.07
2022-09-15T10:51:48.391Z,6.47
2022-09-15T10:54:36.096Z,4.83
2022-09-15T10:57:24.483Z,4.40
2022-09-15T11:00:00.836Z,5.00
2022-09-15T11:02:56.414Z,2.73
2022-09-15T11:05:40.878Z,3.80
2022-09-15T11:08:39.590Z,8.23
2022-09-15T11:11:14.224Z,4.63
2022-09-15T11:13:57.569Z,3.90
2022-09-15T11:16:44.878Z,2.00
2022-09-15T11:22:39.583Z,4.17
2022-09-15T11:25:29.439Z,3.80
2022-09-15T11:28:03.001Z,4.70
2022-09-15T11:30:47.073Z,6.93
2022-09-15T11:33:22.021Z,5.63
2022-09-15T11:36:03.616Z,3.77
2022-09-15T11:38:43.148Z,4.40
2022-09-15T11:41:27.403Z,10.03
2022-09-15T11:44:16.630Z,4.50
2022-09-15T11:47:01.740Z,4.70
2022-09-15T11:49:43.642Z,4.10
2022-09-15T11:52:44.787Z,6.70
2022-09-15T11:55:31.644Z,5.17
2022-09-15T11:58:21.781Z,6.20
2022-09-15T12:01:04.744Z,6.57
2022-09-15T12:03:39.024Z,4.00
2022-09-15T12:06:20.797Z,4.47
2022-09-15T12:08:58.383Z,5.80
2022-09-15T12:12:12.615Z,5.30
2022-09-15T12:14:45.127Z,5.70
2022-09-15T12:17:26.680Z,5.17
2022-09-15T12:20:01.692Z,6.47
2022-09-15T12:22:42.686Z,4.97
2022-09-15T12:25:23.350Z,4.17
2022-09-15T12:28:43.540Z,3.93
2022-09-15T12:31:30.310Z,5.23
2022-09-15T12:34:08.559Z,3.70
2022-09-15T12:36:45.891Z,3.57
2022-09-15T12:39:37.479Z,2.87
2022-09-15T12:42:16.602Z,3.13
2022-09-15T12:44:54.563Z,3.60
2022-09-15T12:47:33.010Z,1.77
2022-09-15T12:50:36.522Z,2.97
2022-09-15T12:53:15.528Z,2.60
2022-09-15T12:55:58.677Z,6.17
2022-09-15T12:58:38.013Z,5.73
2022-09-15T13:01:55.820Z,4.67
2022-09-15T13:05:04.552Z,4.67
2022-09-15T13:07:54.235Z,5.10
2022-09-15T13:10:42.670Z,4.60
2022-09-15T13:13:24.034Z,3.23
2022-09-15T13:16:01.579Z,2.07
2022-09-15T13:18:32.203Z,5.40
2022-09-15T13:21:14.663Z,4.43
2022-09-15T13:23:54.009Z,2.57
2022-09-15T13:26:32.596Z,2.93
2022-09-15T13:29:01.701Z,3.47
2022-09-15T13:31:45.739Z,1.47
2022-09-15T13:35:08.627Z,4.30
2022-09-15T13:38:16.754Z,3.63
2022-09-15T13:41:25.718Z,5.00
2022-09-15T13:44:27.625Z,3.57
2022-09-15T13:47:12.427Z,4.30
2022-09-15T13:49:56.545Z,2.57
2022-09-15T13:52:50.701Z,3.10
2022-09-15T13:55:28.579Z,4.23
2022-09-15T14:01:09.626Z,3.47
2022-09-15T14:03:43.727Z,2.97
2022-09-15T14:06:22.613Z,4.23
2022-09-15T14:08:55.047Z,3.97
2022-09-15T14:11:34.599Z,1.93
2022-09-15T14:14:03.551Z,3.73
2022-09-15T14:16:41.663Z,4.37
2022-09-15T14:19:41.521Z,2.63
2022-09-15T14:22:32.587Z,6.97
2022-09-15T14:25:16.629Z,4.77
2022-09-15T14:27:53.578Z,5.27
2022-09-15T14:30:25.309Z,3.87
2022-09-15T14:33:02.638Z,3.33
2022-09-15T14:35:36.671Z,3.33
2022-09-15T14:38:11.653Z,3.07
2022-09-15T14:40:41.660Z,5.57
2022-09-15T14:43:33.716Z,4.27
2022-09-15T14:46:12.321Z,3.77
2022-09-15T14:48:47.735Z,4.73
2022-09-15T14:51:23.117Z,4.93
2022-09-15T14:54:00.810Z,4.07
2022-09-15T14:56:35.166Z,4.57
2022-09-15T14:59:14.616Z,4.70
2022-09-15T15:01:53.507Z,5.43
2022-09-15T15:04:34.710Z,2.93
2022-09-15T15:07:08.573Z,4.90
2022-09-15T15:09:49.730Z,3.50
2022-09-15T15:12:28.501Z,5.70
2022-09-15T15:15:04.794Z,3.10
2022-09-15T15:17:37.963Z,4.00
2022-09-15T15:20:25.621Z,3.40
2022-09-15T15:23:21.145Z,3.20
2022-09-15T15:26:22.795Z,4.67
2022-09-15T15:28:52.381Z,3.60
2022-09-15T15:31:29.820Z,2.47
2022-09-15T15:34:05.129Z,6.27
2022-09-15T15:36:42.653Z,5.47
2022-09-15T15:39:24.795Z,4.07
2022-09-15T15:42:10.820Z,3.90
2022-09-15T15:44:59.792Z,4.00
2022-09-15T15:47:37.827Z,6.67
2022-09-15T15:50:14.469Z,3.37
2022-09-15T15:52:50.649Z,5.33
2022-09-15T15:55:20.932Z,3.30
2022-09-15T15:57:58.662Z,2.67
2022-09-15T16:00:34.498Z,3.87
2022-09-15T16:03:09.742Z,4.00
2022-09-15T16:05:39.090Z,3.93
2022-09-15T16:08:17.754Z,2.33
2022-09-15T16:10:49.822Z,3.73
2022-09-15T16:13:29.700Z,4.40
2022-09-15T16:16:01.884Z,3.43
2022-09-15T16:18:36.869Z,3.50
2022-09-15T16:21:06.068Z,3.60
2022-09-15T16:23:41.040Z,3.47
2022-09-15T16:26:16.921Z,3.40
2022-09-15T16:28:51.844Z,4.70
2022-09-15T16:31:21.974Z,3.37
2022-09-15T16:33:57.847Z,3.27
2022-09-15T16:36:27.939Z,5.07
2022-09-15T16:39:02.890Z,5.07
2022-09-15T16:41:33.061Z,2.90
2022-09-15T16:44:12.714Z,3.07
2022-09-15T16:46:42.595Z,5.40
2022-09-15T16:49:17.781Z,3.70
2022-09-15T16:51:46.654Z,6.60
2022-09-15T16:54:24.837Z,5.40
2022-09-15T16:56:53.353Z,5.93
2022-09-15T16:59:28.801Z,2.97
2022-09-15T17:01:59.311Z,2.60
2022-09-15T17:04:34.772Z,3.87
2022-09-15T17:07:09.731Z,3.53
2022-09-15T17:09:38.753Z,4.30
2022-09-15T17:14:47.265Z,3.97
2022-09-15T17:17:32.687Z,4.20
2022-09-15T17:20:00.852Z,3.60
2022-09-15T17:22:35.755Z,3.03
2022-09-15T17:25:44.723Z,3.10
2022-09-15T17:28:19.780Z,5.33
2022-09-15T17:30:49.376Z,4.47
2022-09-15T17:33:27.958Z,3.03
2022-09-15T17:35:56.381Z,2.67
2022-09-15T17:38:31.893Z,4.40
2022-09-15T17:41:00.510Z,2.93
2022-09-15T17:43:38.956Z,2.53
2022-09-15T17:46:09.007Z,4.30
2022-09-15T17:48:45.838Z,5.50
2022-09-15T17:51:17.182Z,4.37
2022-09-15T17:53:54.149Z,4.67
2022-09-15T17:56:22.813Z,3.67
2022-09-15T17:58:57.850Z,4.43
2022-09-15T18:01:26.467Z,4.03
2022-09-15T18:04:02.935Z,3.17
2022-09-15T18:06:31.500Z,4.10
2022-09-15T18:09:06.887Z,5.20
2022-09-15T18:12:03.024Z,3.30
2022-09-15T18:14:37.862Z,3.33
2022-09-15T18:17:09.024Z,3.57
2022-09-15T18:19:46.916Z,3.50
2022-09-15T18:22:16.238Z,3.07
2022-09-15T18:24:51.777Z,5.57
2022-09-15T18:27:20.182Z,3.30
2022-09-15T18:29:54.880Z,6.87
2022-09-15T18:32:23.484Z,3.40
2022-09-15T18:34:59.805Z,2.70
2022-09-15T18:37:30.729Z,3.23
2022-09-15T18:40:05.931Z,5.93
2022-09-15T18:42:37.875Z,5.73
2022-09-15T18:45:14.896Z,3.00
2022-09-15T18:47:53.850Z,4.17
2022-09-15T18:50:25.805Z,4.43
2022-09-15T18:53:00.903Z,4.93
2022-09-15T18:55:31.676Z,5.17
2022-09-15T18:58:11.429Z,5.27
2022-09-15T19:00:40.819Z,5.40
2022-09-15T19:03:17.049Z,3.00
2022-09-15T19:05:46.924Z,4.83
2022-09-15T19:08:22.026Z,3.37
2022-09-15T19:10:58.378Z,3.80
2022-09-15T19:13:33.912Z,4.03
2022-09-15T19:16:04.677Z,3.80
2022-09-15T19:18:39.921Z,4.57
2022-09-15T19:21:13.301Z,3.77
2022-09-15T19:23:47.940Z,4.50
2022-09-15T19:26:25.869Z,4.13
2022-09-15T19:29:01.022Z,4.17
2022-09-15T19:31:29.395Z,3.67
2022-09-15T19:34:05.109Z,3.23
2022-09-15T19:36:35.306Z,2.23
2022-09-15T19:39:10.970Z,4.77
2022-09-15T19:41:39.562Z,3.00
2022-09-15T19:44:15.038Z,3.83
2022-09-15T19:46:43.711Z,9.80
2022-09-15T19:49:18.075Z,3.53
2022-09-15T19:51:53.180Z,7.70
2022-09-15T19:54:27.899Z,5.20
2022-09-15T19:56:56.855Z,3.83
2022-09-15T19:59:34.735Z,3.73
2022-09-15T20:02:03.528Z,3.00
2022-09-15T20:04:39.087Z,6.67
2022-09-15T20:07:12.736Z,5.37
2022-09-15T20:09:47.967Z,6.37
2022-09-15T20:12:16.861Z,6.37
2022-09-15T20:14:51.963Z,7.43
2022-09-15T20:17:20.639Z,5.20
2022-09-15T20:19:56.104Z,6.37
2022-09-15T20:22:26.201Z,6.80
2022-09-15T20:25:07.925Z,3.77
2022-09-15T20:27:44.315Z,4.33
2022-09-15T20:30:20.979Z,5.20
2022-09-15T20:32:49.418Z,6.73
2022-09-15T20:35:25.095Z,4.43
2022-09-15T20:37:55.060Z,4.80
2022-09-15T20:40:29.971Z,4.40
2022-09-15T20:42:59.027Z,5.23
2022-09-15T20:45:37.103Z,8.43
2022-09-15T20:48:05.913Z,5.50
2022-09-15T20:50:51.903Z,5.10
2022-09-15T20:53:21.851Z,3.57
2022-09-15T20:55:58.046Z,3.57
2022-09-15T20:58:27.457Z,3.60
2022-09-15T21:01:12.249Z,4.60
2022-09-15T21:03:43.470Z,6.67
2022-09-15T21:06:20.137Z,2.97
2022-09-15T21:08:50.708Z,5.77
2022-09-15T21:11:28.134Z,5.73
2022-09-15T21:13:57.457Z,6.30
2022-09-15T21:16:36.121Z,5.63
2022-09-15T21:19:04.698Z,3.93
2022-09-15T21:21:41.005Z,6.93
2022-09-15T21:24:19.550Z,6.13
2022-09-15T21:27:18.184Z,3.80
2022-09-15T21:29:54.077Z,7.83
2022-09-15T21:32:25.817Z,4.73
2022-09-15T21:35:01.941Z,7.73
2022-09-15T21:37:30.504Z,6.27
2022-09-15T21:40:07.045Z,6.10
2022-09-15T21:42:35.691Z,5.03
2022-09-15T21:45:12.096Z,4.30
2022-09-15T21:47:40.623Z,4.33
2022-09-15T21:50:16.145Z,6.70
2022-09-15T21:52:47.523Z,5.13
2022-09-15T21:55:24.098Z,6.83
2022-09-15T21:57:52.639Z,3.93
2022-09-15T22:00:28.193Z,6.50
2022-09-15T22:02:56.761Z,4.13
2022-09-15T22:05:32.088Z,4.63
2022-09-15T22:08:04.217Z,7.20
2022-09-15T22:10:42.178Z,4.77
2022-09-15T22:13:12.787Z,4.30
2022-09-15T22:15:48.113Z,4.90
2022-09-15T22:18:16.517Z,3.93
2022-09-15T22:20:51.201Z,3.90
2022-09-15T22:23:19.621Z,5.40
2022-09-15T22:26:03.043Z,4.07
2022-09-15T22:28:39.512Z,4.10
2022-09-15T22:31:17.206Z,7.30
2022-09-15T22:33:46.346Z,5.67
2022-09-15T22:36:28.112Z,10.07
2022-09-15T22:39:03.590Z,3.60
2022-09-15T22:41:41.185Z,6.23
2022-09-15T22:44:19.355Z,4.63
2022-09-15T22:46:56.127Z,3.97
2022-09-15T22:49:25.578Z,5.27
2022-09-15T22:52:01.073Z,6.53
2022-09-15T22:54:29.589Z,4.53
2022-09-15T22:57:06.113Z,5.83
2022-09-15T22:59:34.491Z,5.10
2022-09-15T23:02:11.223Z,3.43
2022-09-15T23:04:50.757Z,4.47
2022-09-15T23:07:26.251Z,3.53
2022-09-15T23:09:54.517Z,5.10
2022-09-15T23:12:31.249Z,5.90
2022-09-15T23:15:03.921Z,7.77
2022-09-15T23:17:39.279Z,4.43
2022-09-15T23:20:08.453Z,6.07
2022-09-15T23:22:43.105Z,6.67
2022-09-15T23:25:18.927Z,4.17
2022-09-15T23:27:56.273Z,4.07
2022-09-15T23:30:24.611Z,4.70
2022-09-15T23:32:59.265Z,6.60
2022-09-15T23:35:27.930Z,5.23
2022-09-15T23:38:07.179Z,7.40
2022-09-15T23:40:35.751Z,6.50
2022-09-15T23:43:14.251Z,4.43
2022-09-15T23:45:43.925Z,7.17
2022-09-15T23:48:20.399Z,6.37
2022-09-15T23:50:49.287Z,6.43
2022-09-15T23:53:25.107Z,5.83
2022-09-15T23:55:53.940Z,6.50
2022-09-15T23:58:30.188Z,4.20
